sensor_id;sensor_type;location;lat;lon;timestamp;temperature;humidity
32107;DHT22;18622;51.998;10.440;2022-12-07T03:16:40;4.80;99.90
32107;DHT22;18622;51.998;10.440;2022-12-07T03:19:13;4.80;99.90
32107;DHT22;18622;51.998;10.440;2022-12-07T03:21:47;4.80;99.90
32107;DHT22;18622;51.998;10.440;2022-12-07T03:24:24;4.80;99.90
32107;DHT22;18622;51.998;10.440;2022-12-07T03:27:02;4.90;99.90
32107;DHT22;18622;51.998;10.440;2022-12-07T03:29:44;4.90;99.90
32107;DHT22;18622;51.998;10.440;2022-12-07T03:34:57;4.90;99.90
32107;DHT22;18622;51.998;10.440;2022-12-07T03:37:36;4.90;99.90
32107;DHT22;18622;51.998;10.440;2022-12-07T03:40:16;4.90;99.90
32107;DHT22;18622;51.998;10.440;2022-12-07T03:42:43;4.90;99.90
32107;DHT22;18622;51.998;10.440;2022-12-07T03:45:12;4.90;99.90
32107;DHT22;18622;51.998;10.440;2022-12-07T03:47:48;4.80;99.90
32107;DHT22;18622;51.998;10.440;2022-12-07T03:50:21;4.80;99.90
32107;DHT22;18622;51.998;10.440;2022-12-07T03:52:58;4.80;99.90
32107;DHT22;18622;51.998;10.440;2022-12-07T03:55:34;4.80;99.90
32107;DHT22;18622;51.998;10.440;2022-12-07T03:58:03;4.90;99.90
32107;DHT22;18622;51.998;10.440;2022-12-07T04:34:26;5.00;99.90
32107;DHT22;18622;51.998;10.440;2022-12-07T04:36:54;5.00;99.90
32107;DHT22;18622;51.998;10.440;2022-12-07T04:39:25;5.00;99.90
32107;DHT22;18622;51.998;10.440;2022-12-07T04:41:53;5.00;99.90
32107;DHT22;18622;51.998;10.440;2022-12-07T04:44:21;5.00;99.90
32107;DHT22;18622;51.998;10.440;2022-12-07T04:46:50;5.00;99.90
32107;DHT22;18622;51.998;10.440;2022-12-07T04:49:18;5.10;99.90
32107;DHT22;18622;51.998;10.440;2022-12-07T04:51:46;5.10;99.90
32107;DHT22;18622;51.998;10.440;2022-12-07T04:54:15;5.20;99.90
32107;DHT22;18622;51.998;10.440;2022-12-07T04:56:43;5.20;99.90
32107;DHT22;18622;51.998;10.440;2022-12-07T04:59:12;5.20;99.90
32107;DHT22;18622;51.998;10.440;2022-12-07T05:01:40;5.30;99.90
32107;DHT22;18622;51.998;10.440;2022-12-07T05:04:09;5.30;99.90
32107;DHT22;18622;51.998;10.440;2022-12-07T05:06:36;5.30;99.90
32107;DHT22;18622;51.998;10.440;2022-12-07T05:09:05;5.30;99.90
32107;DHT22;18622;51.998;10.440;2022-12-07T05:11:32;5.20;99.90
32107;DHT22;18622;51.998;10.440;2022-12-07T05:16:40;5.10;99.90
32107;DHT22;18622;51.998;10.440;2022-12-07T05:19:09;5.10;99.90
32107;DHT22;18622;51.998;10.440;2022-12-07T05:21:37;5.10;99.90
32107;DHT22;18622;51.998;10.440;2022-12-07T05:24:06;5.10;99.90
32107;DHT22;18622;51.998;10.440;2022-12-07T05:26:34;5.10;99.90
32107;DHT22;18622;51.998;10.440;2022-12-07T05:29:02;5.10;99.90
32107;DHT22;18622;51.998;10.440;2022-12-07T05:31:29;5.10;99.90
32107;DHT22;18622;51.998;10.440;2022-12-07T05:33:58;5.10;99.90
32107;DHT22;18622;51.998;10.440;2022-12-07T05:36:25;5.10;99.90
32107;DHT22;18622;51.998;10.440;2022-12-07T05:38:55;5.10;99.90
32107;DHT22;18622;51.998;10.440;2022-12-07T05:41:22;5.10;99.90
32107;DHT22;18622;51.998;10.440;2022-12-07T05:44:08;5.10;99.90
32107;DHT22;18622;51.998;10.440;2022-12-07T05:46:36;5.10;99.90
32107;DHT22;18622;51.998;10.440;2022-12-07T05:49:04;5.10;99.90
32107;DHT22;18622;51.998;10.440;2022-12-07T05:51:31;5.10;99.90
32107;DHT22;18622;51.998;10.440;2022-12-07T05:53:59;5.20;99.90
32107;DHT22;18622;51.998;10.440;2022-12-07T05:56:27;5.20;99.90
32107;DHT22;18622;51.998;10.440;2022-12-07T05:58:55;5.30;99.90
32107;DHT22;18622;51.998;10.440;2022-12-07T06:01:41;5.30;99.90
32107;DHT22;18622;51.998;10.440;2022-12-07T06:04:08;5.30;99.90
32107;DHT22;18622;51.998;10.440;2022-12-07T06:06:36;5.20;99.90
32107;DHT22;18622;51.998;10.440;2022-12-07T06:09:04;5.20;99.90
32107;DHT22;18622;51.998;10.440;2022-12-07T06:11:32;5.20;99.90
32107;DHT22;18622;51.998;10.440;2022-12-07T06:14:18;5.30;99.90
32107;DHT22;18622;51.998;10.440;2022-12-07T06:16:45;5.30;99.90
32107;DHT22;18622;51.998;10.440;2022-12-07T06:19:13;5.30;99.90
32107;DHT22;18622;51.998;10.440;2022-12-07T06:21:41;5.30;99.90
32107;DHT22;18622;51.998;10.440;2022-12-07T06:24:13;5.30;99.90
32107;DHT22;18622;51.998;10.440;2022-12-07T06:26:41;5.40;99.90
32107;DHT22;18622;51.998;10.440;2022-12-07T06:29:09;5.40;99.90
32107;DHT22;18622;51.998;10.440;2022-12-07T10:02:56;6.90;99.90
32107;DHT22;18622;51.998;10.440;2022-12-07T10:05:32;7.00;99.90
32107;DHT22;18622;51.998;10.440;2022-12-07T10:07:55;7.00;99.90
32107;DHT22;18622;51.998;10.440;2022-12-07T10:10:31;7.00;99.90
32107;DHT22;18622;51.998;10.440;2022-12-07T10:13:04;7.00;99.90
32107;DHT22;18622;51.998;10.440;2022-12-07T10:18:01;7.10;99.90
32107;DHT22;18622;51.998;10.440;2022-12-07T10:20:29;7.10;99.90
32107;DHT22;18622;51.998;10.440;2022-12-07T10:23:02;7.00;99.90
32107;DHT22;18622;51.998;10.440;2022-12-07T10:25:34;6.90;99.90
32107;DHT22;18622;51.998;10.440;2022-12-07T10:28:16;6.80;99.90
32107;DHT22;18622;51.998;10.440;2022-12-07T10:30:53;6.80;99.90
32107;DHT22;18622;51.998;10.440;2022-12-07T10:33:37;6.90;99.90
32107;DHT22;18622;51.998;10.440;2022-12-07T10:39:13;6.90;99.90
32107;DHT22;18622;51.998;10.440;2022-12-07T10:42:01;6.90;99.90
32107;DHT22;18622;51.998;10.440;2022-12-07T10:44:31;6.90;99.90
32107;DHT22;18622;51.998;10.440;2022-12-07T10:47:03;6.90;99.90
32107;DHT22;18622;51.998;10.440;2022-12-07T10:55:13;7.20;99.90
32107;DHT22;18622;51.998;10.440;2022-12-07T11:00:46;7.40;99.90
32107;DHT22;18622;51.998;10.440;2022-12-07T11:03:26;7.40;99.90
32107;DHT22;18622;51.998;10.440;2022-12-07T11:06:04;7.40;99.90
32107;DHT22;18622;51.998;10.440;2022-12-07T11:11:45;7.10;99.90
32107;DHT22;18622;51.998;10.440;2022-12-07T11:14:21;7.00;99.90
32107;DHT22;18622;51.998;10.440;2022-12-07T11:16:55;7.00;99.90
32107;DHT22;18622;51.998;10.440;2022-12-07T11:22:23;7.10;99.90
32107;DHT22;18622;51.998;10.440;2022-12-07T11:27:46;7.30;99.90
32107;DHT22;18622;51.998;10.440;2022-12-07T11:30:40;7.30;99.90
32107;DHT22;18622;51.998;10.440;2022-12-07T11:33:19;7.30;99.90
32107;DHT22;18622;51.998;10.440;2022-12-07T11:35:57;7.40;99.90
32107;DHT22;18622;51.998;10.440;2022-12-07T11:38:42;7.40;99.90
32107;DHT22;18622;51.998;10.440;2022-12-07T11:41:10;7.40;99.90
32107;DHT22;18622;51.998;10.440;2022-12-07T11:46:17;7.50;99.90
32107;DHT22;18622;51.998;10.440;2022-12-07T11:51:23;7.50;99.90
32107;DHT22;18622;51.998;10.440;2022-12-07T11:54:02;7.50;99.90
32107;DHT22;18622;51.998;10.440;2022-12-07T11:56:28;7.40;99.90
32107;DHT22;18622;51.998;10.440;2022-12-07T16:02:51;5.10;99.90
32107;DHT22;18622;51.998;10.440;2022-12-07T16:05:19;5.10;99.90
32107;DHT22;18622;51.998;10.440;2022-12-07T16:07:47;5.10;99.90
32107;DHT22;18622;51.998;10.440;2022-12-07T16:10:15;5.00;99.90
32107;DHT22;18622;51.998;10.440;2022-12-07T16:12:43;5.00;99.90
32107;DHT22;18622;51.998;10.440;2022-12-07T16:17:39;4.90;99.90
32107;DHT22;18622;51.998;10.440;2022-12-07T16:20:09;4.90;99.90
32107;DHT22;18622;51.998;10.440;2022-12-07T16:22:37;4.90;99.90
32107;DHT22;18622;51.998;10.440;2022-12-07T16:25:05;4.90;99.90
32107;DHT22;18622;51.998;10.440;2022-12-07T16:27:33;4.90;99.90
32107;DHT22;18622;51.998;10.440;2022-12-07T16:30:01;5.00;99.90
32107;DHT22;18622;51.998;10.440;2022-12-07T16:32:28;5.10;99.90
32107;DHT22;18622;51.998;10.440;2022-12-07T16:34:56;5.10;99.90
32107;DHT22;18622;51.998;10.440;2022-12-07T16:37:24;5.20;99.90
32107;DHT22;18622;51.998;10.440;2022-12-07T16:39:52;5.20;99.90
32107;DHT22;18622;51.998;10.440;2022-12-07T16:42:20;5.20;99.90
32107;DHT22;18622;51.998;10.440;2022-12-07T16:44:47;5.20;99.90
32107;DHT22;18622;51.998;10.440;2022-12-07T16:47:15;5.20;99.90
32107;DHT22;18622;51.998;10.440;2022-12-07T16:49:43;5.20;99.90
32107;DHT22;18622;51.998;10.440;2022-12-07T16:52:11;5.10;99.90
32107;DHT22;18622;51.998;10.440;2022-12-07T16:54:39;5.10;99.90
32107;DHT22;18622;51.998;10.440;2022-12-07T16:57:07;5.10;99.90
32107;DHT22;18622;51.998;10.440;2022-12-07T16:59:35;5.10;99.90
32107;DHT22;18622;51.998;10.440;2022-12-07T17:02:03;5.10;99.90
32107;DHT22;18622;51.998;10.440;2022-12-07T17:04:33;5.10;99.90
32107;DHT22;18622;51.998;10.440;2022-12-07T17:07:01;5.10;99.90
32107;DHT22;18622;51.998;10.440;2022-12-07T17:09:29;5.20;99.90
32107;DHT22;18622;51.998;10.440;2022-12-07T17:11:56;5.10;99.90
32107;DHT22;18622;51.998;10.440;2022-12-07T17:14:24;5.10;99.90
32107;DHT22;18622;51.998;10.440;2022-12-07T17:17:10;5.10;99.90
32107;DHT22;18622;51.998;10.440;2022-12-07T17:19:38;5.10;99.90
32107;DHT22;18622;51.998;10.440;2022-12-07T17:22:05;5.10;99.90
32107;DHT22;18622;51.998;10.440;2022-12-07T17:24:33;5.10;99.90
32107;DHT22;18622;51.998;10.440;2022-12-07T17:27:01;5.00;99.90
32107;DHT22;18622;51.998;10.440;2022-12-07T17:29:29;5.00;99.90
32107;DHT22;18622;51.998;10.440;2022-12-07T17:31:57;5.00;99.90
32107;DHT22;18622;51.998;10.440;2022-12-07T17:34:24;5.00;99.90
32107;DHT22;18622;51.998;10.440;2022-12-07T17:36:52;4.90;99.90
32107;DHT22;18622;51.998;10.440;2022-12-07T17:39:21;4.80;99.90
32107;DHT22;18622;51.998;10.440;2022-12-07T17:41:49;4.80;99.90
32107;DHT22;18622;51.998;10.440;2022-12-07T17:44:34;4.80;99.90
32107;DHT22;18622;51.998;10.440;2022-12-07T17:47:02;4.70;99.90
32107;DHT22;18622;51.998;10.440;2022-12-07T17:49:31;4.70;99.90
32107;DHT22;18622;51.998;10.440;2022-12-07T17:51:59;4.60;99.90
32107;DHT22;18622;51.998;10.440;2022-12-07T17:54:45;4.60;99.90
32107;DHT22;18622;51.998;10.440;2022-12-07T17:57:13;4.60;99.90
32107;DHT22;18622;51.998;10.440;2022-12-07T17:59:40;4.70;99.90
32107;DHT22;18622;51.998;10.440;2022-12-07T18:02:09;4.70;99.90
32107;DHT22;18622;51.998;10.440;2022-12-07T18:04:37;4.70;99.90
32107;DHT22;18622;51.998;10.440;2022-12-07T18:07:06;4.70;99.90
32107;DHT22;18622;51.998;10.440;2022-12-07T18:09:35;4.80;99.90
32107;DHT22;18622;51.998;10.440;2022-12-07T18:12:03;4.80;99.90
32107;DHT22;18622;51.998;10.440;2022-12-07T18:14:31;4.80;99.90
32107;DHT22;18622;51.998;10.440;2022-12-07T18:16:59;4.90;99.90
32107;DHT22;18622;51.998;10.440;2022-12-07T18:19:26;4.80;99.90
32107;DHT22;18622;51.998;10.440;2022-12-07T18:21:54;4.80;99.90
32107;DHT22;18622;51.998;10.440;2022-12-07T18:24:22;4.80;99.90
32107;DHT22;18622;51.998;10.440;2022-12-07T18:26:50;4.90;99.90
32107;DHT22;18622;51.998;10.440;2022-12-07T18:29:18;4.90;99.90
32107;DHT22;18622;51.998;10.440;2022-12-07T18:31:47;4.90;99.90
32107;DHT22;18622;51.998;10.440;2022-12-07T18:34:16;4.90;99.90
32107;DHT22;18622;51.998;10.440;2022-12-07T18:36:45;4.90;99.90
32107;DHT22;18622;51.998;10.440;2022-12-07T18:39:14;4.90;99.90
32107;DHT22;18622;51.998;10.440;2022-12-07T18:41:42;5.00;99.90
32107;DHT22;18622;51.998;10.440;2022-12-07T18:44:10;5.00;99.90
32107;DHT22;18622;51.998;10.440;2022-12-07T18:46:40;5.00;99.90
32107;DHT22;18622;51.998;10.440;2022-12-07T18:49:12;5.00;99.90
32107;DHT22;18622;51.998;10.440;2022-12-07T18:51:40;5.00;99.90
32107;DHT22;18622;51.998;10.440;2022-12-07T18:54:08;4.90;99.90
32107;DHT22;18622;51.998;10.440;2022-12-07T18:56:36;5.00;99.90
32107;DHT22;18622;51.998;10.440;2022-12-07T18:59:05;5.00;99.90
32107;DHT22;18622;51.998;10.440;2022-12-07T19:01:52;5.00;99.90
32107;DHT22;18622;51.998;10.440;2022-12-07T19:04:20;4.90;99.90
32107;DHT22;18622;51.998;10.440;2022-12-07T19:06:49;4.90;99.90
32107;DHT22;18622;51.998;10.440;2022-12-07T19:09:17;4.90;99.90
32107;DHT22;18622;51.998;10.440;2022-12-07T19:11:46;4.90;99.90
32107;DHT22;18622;51.998;10.440;2022-12-07T19:14:20;5.00;99.90
32107;DHT22;18622;51.998;10.440;2022-12-07T19:16:49;5.00;99.90
32107;DHT22;18622;51.998;10.440;2022-12-07T19:19:18;5.00;99.90
32107;DHT22;18622;51.998;10.440;2022-12-07T19:21:47;5.00;99.90
32107;DHT22;18622;51.998;10.440;2022-12-07T19:24:15;5.10;99.90
32107;DHT22;18622;51.998;10.440;2022-12-07T19:26:43;5.10;99.90
32107;DHT22;18622;51.998;10.440;2022-12-07T19:29:11;5.10;99.90
32107;DHT22;18622;51.998;10.440;2022-12-07T19:31:39;5.20;99.90
32107;DHT22;18622;51.998;10.440;2022-12-07T19:34:09;5.20;99.90
32107;DHT22;18622;51.998;10.440;2022-12-07T19:36:37;5.20;99.90
32107;DHT22;18622;51.998;10.440;2022-12-07T19:39:06;5.20;99.90
32107;DHT22;18622;51.998;10.440;2022-12-07T19:41:34;5.20;99.90
32107;DHT22;18622;51.998;10.440;2022-12-07T19:44:05;5.20;99.90
32107;DHT22;18622;51.998;10.440;2022-12-07T19:46:33;5.10;99.90
32107;DHT22;18622;51.998;10.440;2022-12-07T19:49:01;5.10;99.90
32107;DHT22;18622;51.998;10.440;2022-12-07T19:51:30;5.10;99.90
32107;DHT22;18622;51.998;10.440;2022-12-07T19:54:00;5.10;99.90
32107;DHT22;18622;51.998;10.440;2022-12-07T19:56:29;5.00;99.90
32107;DHT22;18622;51.998;10.440;2022-12-07T19:58:58;5.00;99.90
32107;DHT22;18622;51.998;10.440;2022-12-07T20:01:28;5.00;99.90
32107;DHT22;18622;51.998;10.440;2022-12-07T20:03:56;5.00;99.90
32107;DHT22;18622;51.998;10.440;2022-12-07T20:06:24;5.00;99.90
32107;DHT22;18622;51.998;10.440;2022-12-07T20:08:52;5.00;99.90
32107;DHT22;18622;51.998;10.440;2022-12-07T20:11:20;5.00;99.90
32107;DHT22;18622;51.998;10.440;2022-12-07T20:14:07;5.10;99.90
32107;DHT22;18622;51.998;10.440;2022-12-07T20:16:36;5.00;99.90
32107;DHT22;18622;51.998;10.440;2022-12-07T20:19:07;5.00;99.90
32107;DHT22;18622;51.998;10.440;2022-12-07T20:21:36;5.10;99.90
32107;DHT22;18622;51.998;10.440;2022-12-07T20:24:05;5.10;99.90
32107;DHT22;18622;51.998;10.440;2022-12-07T20:26:34;5.10;99.90
32107;DHT22;18622;51.998;10.440;2022-12-07T20:29:10;5.10;99.90
32107;DHT22;18622;51.998;10.440;2022-12-07T20:31:40;5.10;99.90
32107;DHT22;18622;51.998;10.440;2022-12-07T20:34:08;5.10;99.90
32107;DHT22;18622;51.998;10.440;2022-12-07T20:36:36;5.10;99.90
32107;DHT22;18622;51.998;10.440;2022-12-07T20:39:05;5.10;99.90
32107;DHT22;18622;51.998;10.440;2022-12-07T20:41:33;5.10;99.90
32107;DHT22;18622;51.998;10.440;2022-12-07T20:44:19;5.10;99.90
32107;DHT22;18622;51.998;10.440;2022-12-07T20:46:47;5.10;99.90
32107;DHT22;18622;51.998;10.440;2022-12-07T20:49:15;5.00;99.90
32107;DHT22;18622;51.998;10.440;2022-12-07T20:51:44;5.00;99.90
32107;DHT22;18622;51.998;10.440;2022-12-07T20:54:13;5.00;99.90
32107;DHT22;18622;51.998;10.440;2022-12-07T20:56:41;5.00;99.90
32107;DHT22;18622;51.998;10.440;2022-12-07T20:59:12;5.00;99.90
32107;DHT22;18622;51.998;10.440;2022-12-07T21:01:40;5.00;99.90
32107;DHT22;18622;51.998;10.440;2022-12-07T21:04:09;5.00;99.90
32107;DHT22;18622;51.998;10.440;2022-12-07T21:06:37;4.80;99.90
32107;DHT22;18622;51.998;10.440;2022-12-07T21:09:05;4.80;99.90
32107;DHT22;18622;51.998;10.440;2022-12-07T21:11:32;4.80;99.90
32107;DHT22;18622;51.998;10.440;2022-12-07T21:14:01;4.80;99.90
32107;DHT22;18622;51.998;10.440;2022-12-07T21:16:29;4.70;99.90
32107;DHT22;18622;51.998;10.440;2022-12-07T21:18:59;4.70;99.90
32107;DHT22;18622;51.998;10.440;2022-12-07T21:21:28;4.70;99.90
32107;DHT22;18622;51.998;10.440;2022-12-07T21:23:56;4.70;99.90
32107;DHT22;18622;51.998;10.440;2022-12-07T21:26:25;4.70;99.90
32107;DHT22;18622;51.998;10.440;2022-12-07T21:28:53;4.60;99.90
32107;DHT22;18622;51.998;10.440;2022-12-07T21:31:22;4.70;99.90
32107;DHT22;18622;51.998;10.440;2022-12-07T21:33:50;4.70;99.90
32107;DHT22;18622;51.998;10.440;2022-12-07T21:36:20;4.70;99.90
32107;DHT22;18622;51.998;10.440;2022-12-07T21:38:49;4.70;99.90
32107;DHT22;18622;51.998;10.440;2022-12-07T21:41:22;4.70;99.90
32107;DHT22;18622;51.998;10.440;2022-12-07T21:43:51;4.70;99.90
32107;DHT22;18622;51.998;10.440;2022-12-07T21:46:20;4.70;99.90
32107;DHT22;18622;51.998;10.440;2022-12-07T21:48:53;4.70;99.90
32107;DHT22;18622;51.998;10.440;2022-12-07T21:51:22;4.70;99.90
32107;DHT22;18622;51.998;10.440;2022-12-07T21:53:51;4.80;99.90
32107;DHT22;18622;51.998;10.440;2022-12-07T21:56:24;4.80;99.90
32107;DHT22;18622;51.998;10.440;2022-12-07T21:58:52;4.80;99.90
